createdAt,value
2022-08-18T00:00:25.062Z,98.50
2022-08-18T00:01:25.070Z,100.60
2022-08-18T00:02:29.944Z,99.50
2022-08-18T00:03:53.280Z,100.10
2022-08-18T00:04:35.049Z,95.20
2022-08-18T00:05:24.995Z,91.50
2022-08-18T00:06:24.997Z,90.50
2022-08-18T00:07:24.971Z,96.70
2022-08-18T00:08:24.971Z,96.30
2022-08-18T00:09:27.767Z,99.10
2022-08-18T00:10:24.967Z,95.40
2022-08-18T00:11:24.930Z,97.90
2022-08-18T00:12:24.910Z,99.30
2022-08-18T00:13:24.917Z,98.20
2022-08-18T00:14:24.959Z,85.30
2022-08-18T00:15:24.915Z,77.30
2022-08-18T00:16:24.875Z,77.90
2022-08-18T00:17:24.866Z,72.40
2022-08-18T00:18:24.853Z,73.30
2022-08-18T00:19:45.285Z,74.10
2022-08-18T00:20:24.903Z,70.00
2022-08-18T00:21:24.904Z,75.10
2022-08-18T00:22:24.824Z,76.40
2022-08-18T00:23:24.824Z,73.70
2022-08-18T00:24:24.781Z,71.80
2022-08-18T00:25:24.816Z,76.60
2022-08-18T00:26:24.794Z,68.40
2022-08-18T00:27:28.112Z,73.40
2022-08-18T00:28:24.795Z,83.30
2022-08-18T00:29:24.745Z,81.10
2022-08-18T00:30:24.733Z,71.80
2022-08-18T00:31:24.734Z,72.90
2022-08-18T00:32:24.712Z,75.60
2022-08-18T00:33:24.728Z,67.70
2022-08-18T00:34:24.688Z,67.10
2022-08-18T00:35:24.726Z,66.40
2022-08-18T00:36:24.701Z,66.20
2022-08-18T00:37:24.669Z,66.30
2022-08-18T00:38:25.506Z,68.90
2022-08-18T00:39:24.646Z,70.40
2022-08-18T00:40:24.693Z,75.10
2022-08-18T00:41:24.672Z,74.90
2022-08-18T00:42:28.901Z,85.50
2022-08-18T00:43:24.629Z,86.70
2022-08-18T00:44:24.629Z,93.40
2022-08-18T00:45:24.588Z,92.40
2022-08-18T00:46:24.583Z,92.10
2022-08-18T00:47:33.013Z,98.70
2022-08-18T00:48:24.547Z,96.30
2022-08-18T00:49:24.552Z,90.80
2022-08-18T00:50:24.582Z,85.00
2022-08-18T00:51:24.568Z,83.10
2022-08-18T00:52:24.521Z,86.20
2022-08-18T00:53:24.517Z,84.00
2022-08-18T00:54:24.486Z,82.60
2022-08-18T00:55:24.521Z,84.70
2022-08-18T00:56:24.484Z,84.20
2022-08-18T00:57:24.475Z,90.90
2022-08-18T00:58:24.471Z,85.80
2022-08-18T00:59:24.444Z,88.50
2022-08-18T01:00:24.486Z,87.40
2022-08-18T01:01:24.498Z,94.30
2022-08-18T01:02:24.408Z,88.10
2022-08-18T01:03:25.170Z,97.30
2022-08-18T01:04:24.410Z,103.80
2022-08-18T01:05:24.397Z,97.20
2022-08-18T01:06:24.397Z,95.10
2022-08-18T01:07:24.396Z,96.80
2022-08-18T01:08:28.980Z,93.40
2022-08-18T01:09:24.368Z,89.70
2022-08-18T01:10:24.353Z,91.70
2022-08-18T01:11:24.319Z,90.70
2022-08-18T01:12:45.024Z,91.30
2022-08-18T01:13:24.341Z,91.90
2022-08-18T01:14:24.354Z,103.30
2022-08-18T01:15:29.251Z,106.50
2022-08-18T01:16:24.295Z,100.30
2022-08-18T01:17:24.286Z,100.10
2022-08-18T01:18:24.279Z,103.80
2022-08-18T01:19:24.263Z,104.80
2022-08-18T01:20:24.253Z,107.00
2022-08-18T01:21:24.242Z,107.20
2022-08-18T01:22:24.213Z,100.50
2022-08-18T01:23:24.240Z,97.70
2022-08-18T01:24:24.196Z,95.70
2022-08-18T01:25:26.443Z,96.20
2022-08-18T01:26:24.203Z,98.50
2022-08-18T01:27:24.159Z,100.50
2022-08-18T01:28:24.177Z,100.20
2022-08-18T01:29:24.157Z,102.40
2022-08-18T01:30:24.161Z,93.60
2022-08-18T01:31:24.135Z,96.90
2022-08-18T01:32:24.103Z,97.10
2022-08-18T01:33:30.090Z,102.10
2022-08-18T01:34:24.118Z,101.30
2022-08-18T01:35:24.100Z,102.80
2022-08-18T01:36:24.077Z,105.30
2022-08-18T01:37:24.076Z,98.00
2022-08-18T01:38:24.072Z,95.10
2022-08-18T01:41:06.325Z,99.50
2022-08-18T01:41:32.936Z,103.20
2022-08-18T01:41:38.080Z,101.10
2022-08-18T01:42:37.960Z,106.40
2022-08-18T01:43:37.990Z,105.60
2022-08-18T01:44:37.982Z,105.40
2022-08-18T01:45:37.953Z,105.40
2022-08-18T01:46:37.926Z,106.00
2022-08-18T01:47:47.813Z,97.80
2022-08-18T01:48:37.950Z,100.40
2022-08-18T01:49:37.901Z,101.20
2022-08-18T01:50:37.884Z,105.70
2022-08-18T01:51:40.601Z,103.00
2022-08-18T01:52:37.875Z,104.80
2022-08-18T01:53:37.874Z,103.50
2022-08-18T01:54:37.850Z,103.20
2022-08-18T01:55:37.844Z,101.80
2022-08-18T01:56:37.828Z,95.70
2022-08-18T01:57:37.815Z,99.70
2022-08-18T01:58:37.824Z,102.00
2022-08-18T01:59:37.796Z,95.80
2022-08-18T02:00:37.818Z,92.60
2022-08-18T02:01:37.851Z,94.30
2022-08-18T02:02:37.793Z,96.40
2022-08-18T02:03:37.797Z,94.10
2022-08-18T02:04:37.860Z,92.00
2022-08-18T02:05:37.787Z,94.50
2022-08-18T02:06:37.743Z,92.30
2022-08-18T02:07:37.735Z,88.90
2022-08-18T02:08:37.698Z,89.10
2022-08-18T02:09:37.911Z,86.40
2022-08-18T02:10:37.700Z,86.80
2022-08-18T02:11:37.717Z,86.20
2022-08-18T02:12:37.667Z,82.20
2022-08-18T02:13:37.687Z,84.40
2022-08-18T02:14:37.671Z,82.80
2022-08-18T02:15:37.657Z,83.20
2022-08-18T02:16:37.639Z,81.50
2022-08-18T02:17:37.653Z,81.40
2022-08-18T02:18:48.463Z,81.70
2022-08-18T02:19:37.604Z,87.00
2022-08-18T02:20:37.602Z,85.30
2022-08-18T02:21:37.581Z,91.90
2022-08-18T02:22:37.613Z,91.10
2022-08-18T02:23:37.592Z,87.20
2022-08-18T02:24:37.615Z,93.90
2022-08-18T02:25:37.560Z,91.60
2022-08-18T02:26:37.520Z,89.10
2022-08-18T02:27:37.529Z,93.60
2022-08-18T02:28:37.560Z,92.70
2022-08-18T02:29:37.521Z,90.50
2022-08-18T02:30:37.497Z,91.00
2022-08-18T02:31:37.519Z,87.50
2022-08-18T02:32:37.491Z,89.20
2022-08-18T02:33:37.470Z,95.50
2022-08-18T02:34:37.474Z,98.70
2022-08-18T02:35:37.486Z,94.60
2022-08-18T02:36:37.417Z,96.90
2022-08-18T02:37:37.431Z,96.10
2022-08-18T02:38:37.412Z,94.40
2022-08-18T02:39:37.428Z,91.10
2022-08-18T02:40:37.420Z,90.60
2022-08-18T02:41:37.393Z,98.10
2022-08-18T02:42:37.379Z,96.30
2022-08-18T02:43:37.875Z,97.80
2022-08-18T02:44:37.349Z,97.20
2022-08-18T02:45:37.389Z,96.30
2022-08-18T02:46:37.340Z,99.40
2022-08-18T02:47:37.349Z,98.30
2022-08-18T02:48:37.319Z,94.00
2022-08-18T02:49:37.299Z,94.10
2022-08-18T02:50:37.289Z,96.30
2022-08-18T02:51:37.329Z,93.30
2022-08-18T02:52:37.300Z,92.50
2022-08-18T02:53:37.269Z,93.30
2022-08-18T02:54:37.257Z,97.50
2022-08-18T02:55:37.254Z,95.40
2022-08-18T02:56:41.459Z,97.10
2022-08-18T02:57:37.239Z,91.60
2022-08-18T02:58:37.230Z,96.70
2022-08-18T02:59:37.221Z,99.80
2022-08-18T03:00:37.191Z,94.60
2022-08-18T03:01:37.247Z,94.60
2022-08-18T03:02:37.176Z,96.90
2022-08-18T03:03:37.234Z,104.70
2022-08-18T03:04:37.170Z,107.90
2022-08-18T03:05:37.145Z,107.30
2022-08-18T03:06:37.157Z,106.50
2022-08-18T03:07:37.211Z,108.70
2022-08-18T03:08:37.132Z,111.90
2022-08-18T03:09:37.131Z,109.70
2022-08-18T03:10:37.095Z,105.20
2022-08-18T03:11:37.094Z,98.60
2022-08-18T03:12:37.073Z,97.00
2022-08-18T03:13:37.087Z,97.10
2022-08-18T03:14:37.094Z,99.60
2022-08-18T03:15:37.069Z,98.30
2022-08-18T03:16:37.030Z,101.80
2022-08-18T03:17:37.043Z,98.80
2022-08-18T03:18:37.019Z,97.40
2022-08-18T03:19:37.024Z,96.40
2022-08-18T03:20:36.997Z,104.70
2022-08-18T03:21:37.000Z,104.50
2022-08-18T03:22:36.998Z,102.60
2022-08-18T03:23:36.972Z,104.10
2022-08-18T03:24:36.976Z,99.50
2022-08-18T03:25:36.979Z,97.80
2022-08-18T03:26:36.981Z,103.70
2022-08-18T03:27:36.933Z,99.00
2022-08-18T03:28:36.939Z,100.20
2022-08-18T03:29:36.936Z,102.60
2022-08-18T03:30:36.903Z,101.40
2022-08-18T03:31:36.885Z,101.40
2022-08-18T03:32:36.879Z,101.10
2022-08-18T03:33:36.912Z,93.30
2022-08-18T03:34:36.872Z,93.00
2022-08-18T03:35:36.886Z,91.10
2022-08-18T03:36:36.838Z,96.00
2022-08-18T03:37:36.843Z,92.30
2022-08-18T03:38:36.841Z,98.00
2022-08-18T03:39:36.906Z,100.40
2022-08-18T03:40:36.803Z,101.10
2022-08-18T03:41:57.599Z,97.80
2022-08-18T03:42:36.782Z,100.30
2022-08-18T03:43:50.920Z,98.80
2022-08-18T03:44:36.783Z,93.80
2022-08-18T03:45:36.771Z,93.30
2022-08-18T03:46:36.753Z,96.90
2022-08-18T03:47:36.739Z,95.30
2022-08-18T03:48:36.764Z,90.30
2022-08-18T03:49:36.751Z,94.70
2022-08-18T03:50:36.698Z,89.90
2022-08-18T03:51:36.705Z,97.50
2022-08-18T03:52:36.716Z,101.00
2022-08-18T03:53:36.683Z,96.70
2022-08-18T03:54:36.696Z,97.20
2022-08-18T03:55:36.652Z,96.90
2022-08-18T03:56:36.600Z,96.30
2022-08-18T03:57:39.332Z,99.10
2022-08-18T03:58:36.587Z,98.60
2022-08-18T03:59:36.581Z,94.90
2022-08-18T04:00:36.549Z,94.70
2022-08-18T04:01:36.635Z,94.00
2022-08-18T04:02:36.519Z,95.10
2022-08-18T04:03:36.520Z,92.10
2022-08-18T04:04:36.526Z,96.10
2022-08-18T04:05:36.492Z,99.00
2022-08-18T04:06:36.486Z,94.00
2022-08-18T04:07:36.481Z,95.00
2022-08-18T04:08:36.469Z,94.70
2022-08-18T04:09:36.475Z,94.10
2022-08-18T04:10:36.446Z,98.90
2022-08-18T04:11:37.117Z,101.20
2022-08-18T04:12:36.425Z,103.00
2022-08-18T04:13:36.412Z,100.80
2022-08-18T04:14:36.420Z,104.10
2022-08-18T04:15:36.418Z,107.30
2022-08-18T04:16:36.419Z,105.20
2022-08-18T04:17:36.364Z,108.10
2022-08-18T04:18:36.374Z,104.20
2022-08-18T04:19:36.365Z,104.50
2022-08-18T04:20:36.373Z,108.00
2022-08-18T04:21:36.354Z,109.40
2022-08-18T04:22:36.324Z,106.00
2022-08-18T04:23:40.107Z,106.30
2022-08-18T04:24:36.327Z,102.00
2022-08-18T04:25:36.298Z,101.70
2022-08-18T04:26:36.304Z,103.60
2022-08-18T04:27:36.287Z,103.50
2022-08-18T04:28:36.285Z,104.90
2022-08-18T04:29:36.253Z,101.00
2022-08-18T04:30:36.277Z,99.80
2022-08-18T04:31:36.235Z,98.70
2022-08-18T04:32:36.253Z,104.30
2022-08-18T04:33:36.213Z,99.00
2022-08-18T04:34:36.221Z,99.30
2022-08-18T04:35:36.210Z,97.80
2022-08-18T04:36:36.214Z,99.60
2022-08-18T04:37:39.760Z,94.30
2022-08-18T04:38:36.193Z,96.60
2022-08-18T04:39:36.226Z,93.30
2022-08-18T04:40:36.175Z,95.50
2022-08-18T04:41:36.129Z,90.70
2022-08-18T04:42:36.150Z,94.70
2022-08-18T04:43:36.136Z,95.20
2022-08-18T04:44:36.111Z,94.60
2022-08-18T04:45:36.098Z,92.10
2022-08-18T04:46:36.095Z,87.30
2022-08-18T04:47:36.059Z,85.40
2022-08-18T04:48:36.069Z,90.60
2022-08-18T04:49:36.054Z,94.10
2022-08-18T04:50:36.063Z,88.40
2022-08-18T04:52:34.068Z,84.20
2022-08-18T04:52:45.567Z,87.20
2022-08-18T04:53:36.011Z,88.60
2022-08-18T04:54:36.008Z,85.80
2022-08-18T04:55:35.990Z,86.20
2022-08-18T04:56:35.984Z,89.20
2022-08-18T04:57:35.982Z,86.50
2022-08-18T04:58:35.963Z,85.70
2022-08-18T04:59:35.940Z,87.10
2022-08-18T05:00:35.993Z,84.00
2022-08-18T05:01:36.026Z,85.30
2022-08-18T05:02:35.925Z,87.20
2022-08-18T05:03:35.899Z,85.80
2022-08-18T05:04:35.903Z,85.70
2022-08-18T05:05:35.880Z,86.90
2022-08-18T05:06:35.924Z,84.90
2022-08-18T05:07:35.886Z,89.10
2022-08-18T05:08:35.858Z,84.70
2022-08-18T05:09:41.291Z,84.40
2022-08-18T05:10:35.842Z,85.90
2022-08-18T05:11:35.864Z,83.40
2022-08-18T05:12:35.819Z,87.00
2022-08-18T05:13:35.804Z,85.20
2022-08-18T05:14:35.800Z,87.40
2022-08-18T05:15:59.297Z,92.30
2022-08-18T05:16:35.787Z,91.00
2022-08-18T05:17:35.768Z,92.40
2022-08-18T05:18:35.768Z,95.40
2022-08-18T05:19:35.760Z,95.80
2022-08-18T05:20:35.765Z,98.50
2022-08-18T05:21:35.726Z,93.20
2022-08-18T05:22:35.754Z,92.20
2022-08-18T05:23:35.706Z,94.90
2022-08-18T05:24:36.957Z,92.40
2022-08-18T05:25:35.683Z,90.20
2022-08-18T05:26:35.670Z,92.70
2022-08-18T05:27:35.672Z,91.80
2022-08-18T05:28:35.677Z,91.30
2022-08-18T05:29:35.655Z,91.10
2022-08-18T05:30:35.631Z,92.40
2022-08-18T05:31:35.613Z,97.40
2022-08-18T05:32:46.889Z,99.40
2022-08-18T05:33:35.599Z,102.40
2022-08-18T05:34:35.607Z,94.70
2022-08-18T05:35:35.609Z,96.40
2022-08-18T05:36:35.589Z,97.00
2022-08-18T05:37:35.941Z,101.70
2022-08-18T05:38:35.564Z,99.20
2022-08-18T05:39:35.633Z,103.90
2022-08-18T05:40:35.563Z,105.10
2022-08-18T05:41:35.514Z,96.90
2022-08-18T05:42:35.507Z,96.20
2022-08-18T05:43:35.508Z,99.60
2022-08-18T05:44:35.516Z,95.40
2022-08-18T05:45:35.475Z,95.60
2022-08-18T05:46:35.515Z,96.40
2022-08-18T05:47:35.473Z,95.70
2022-08-18T05:48:38.600Z,97.50
2022-08-18T05:49:35.440Z,98.70
2022-08-18T05:50:35.470Z,94.20
2022-08-18T05:51:35.426Z,96.60
2022-08-18T05:52:35.432Z,94.90
2022-08-18T05:53:35.437Z,90.20
2022-08-18T05:54:35.408Z,93.30
2022-08-18T05:55:35.379Z,95.40
2022-08-18T05:56:35.366Z,96.20
2022-08-18T05:57:35.376Z,98.50
2022-08-18T05:58:35.366Z,90.90
2022-08-18T05:59:35.370Z,92.80
2022-08-18T06:00:35.340Z,90.70
2022-08-18T06:01:35.312Z,90.30
2022-08-18T06:02:35.430Z,90.50
2022-08-18T06:03:46.279Z,90.60
2022-08-18T06:04:35.309Z,89.30
2022-08-18T06:05:35.311Z,94.80
2022-08-18T06:06:35.265Z,91.30
2022-08-18T06:07:35.258Z,92.70
2022-08-18T06:08:35.299Z,95.90
2022-08-18T06:09:35.304Z,105.80
2022-08-18T06:10:35.255Z,95.10
2022-08-18T06:11:35.231Z,95.30
2022-08-18T06:12:37.669Z,113.60
2022-08-18T06:13:35.195Z,94.90
2022-08-18T06:14:35.210Z,95.10
2022-08-18T06:15:35.202Z,94.20
2022-08-18T06:16:35.191Z,91.90
2022-08-18T06:17:35.146Z,99.30
2022-08-18T06:18:35.157Z,99.20
2022-08-18T06:19:35.171Z,108.10
2022-08-18T06:20:35.154Z,98.80
2022-08-18T06:21:38.962Z,104.60
2022-08-18T06:22:35.118Z,97.60
2022-08-18T06:23:35.095Z,103.00
2022-08-18T06:24:35.095Z,102.80
2022-08-18T06:25:35.085Z,102.90
2022-08-18T06:26:35.074Z,99.10
2022-08-18T06:27:35.063Z,94.90
2022-08-18T06:28:35.062Z,98.10
2022-08-18T06:29:35.042Z,106.10
2022-08-18T06:30:35.050Z,102.90
2022-08-18T06:31:35.009Z,101.30
2022-08-18T06:32:35.024Z,98.00
2022-08-18T06:33:35.015Z,98.10
2022-08-18T06:34:34.994Z,92.90
2022-08-18T06:35:34.985Z,99.60
2022-08-18T06:36:35.071Z,99.60
2022-08-18T06:37:34.952Z,99.90
2022-08-18T06:38:34.939Z,92.60
2022-08-18T06:39:34.995Z,100.30
2022-08-18T06:40:34.932Z,99.10
2022-08-18T06:41:41.964Z,93.10
2022-08-18T06:42:39.932Z,90.70
2022-08-18T06:43:34.885Z,97.90
2022-08-18T06:44:34.900Z,93.50
2022-08-18T06:45:39.652Z,92.30
2022-08-18T06:46:34.856Z,93.20
2022-08-18T06:47:34.870Z,97.30
2022-08-18T06:48:34.836Z,91.70
2022-08-18T06:49:34.816Z,93.70
2022-08-18T06:50:34.825Z,93.20
2022-08-18T06:51:40.135Z,96.10
2022-08-18T06:52:34.790Z,95.30
2022-08-18T06:53:34.797Z,95.40
2022-08-18T06:54:34.772Z,91.80
2022-08-18T06:55:34.796Z,93.80
2022-08-18T06:56:34.765Z,91.20
2022-08-18T06:57:34.820Z,95.50
2022-08-18T06:58:34.722Z,92.50
2022-08-18T06:59:34.706Z,92.80
2022-08-18T07:00:34.758Z,88.60
2022-08-18T07:01:34.780Z,90.60
2022-08-18T07:02:35.732Z,92.30
2022-08-18T07:03:34.669Z,92.10
2022-08-18T07:04:34.654Z,93.50
2022-08-18T07:05:34.663Z,92.70
2022-08-18T07:06:34.662Z,92.00
2022-08-18T07:07:40.367Z,92.40
2022-08-18T07:08:35.809Z,92.80
2022-08-18T07:09:34.638Z,92.60
2022-08-18T07:10:34.895Z,91.40
2022-08-18T07:11:34.596Z,95.30
2022-08-18T07:12:34.578Z,89.90
2022-08-18T07:13:34.548Z,94.10
2022-08-18T07:14:34.580Z,91.50
2022-08-18T07:15:34.550Z,90.70
2022-08-18T07:16:57.223Z,89.70
2022-08-18T07:17:43.678Z,91.20
2022-08-18T07:18:34.527Z,87.70
2022-08-18T07:19:34.509Z,88.10
2022-08-18T07:20:34.516Z,87.90
2022-08-18T07:21:34.522Z,87.90
2022-08-18T07:22:39.575Z,88.00
2022-08-18T07:23:34.454Z,87.00
2022-08-18T07:24:34.464Z,88.90
2022-08-18T07:25:34.447Z,88.90
2022-08-18T07:26:34.443Z,87.10
2022-08-18T07:27:34.406Z,84.30
2022-08-18T07:28:34.411Z,86.40
2022-08-18T07:29:34.383Z,84.10
2022-08-18T07:30:34.391Z,80.10
2022-08-18T07:31:34.374Z,84.70
2022-08-18T07:32:34.413Z,82.80
2022-08-18T07:33:34.369Z,88.50
2022-08-18T07:34:34.345Z,87.20
2022-08-18T07:35:34.317Z,84.30
2022-08-18T07:36:34.321Z,84.70
2022-08-18T07:37:34.332Z,80.00
2022-08-18T07:38:43.520Z,82.20
2022-08-18T07:39:34.288Z,83.90
2022-08-18T07:40:34.288Z,95.30
2022-08-18T07:41:34.253Z,83.70
2022-08-18T07:42:54.380Z,83.50
2022-08-18T07:43:34.274Z,90.70
2022-08-18T07:44:34.257Z,91.00
2022-08-18T07:45:34.220Z,85.90
2022-08-18T07:46:34.230Z,77.70
2022-08-18T07:47:34.233Z,75.90
2022-08-18T07:48:38.680Z,73.90
2022-08-18T07:49:34.455Z,75.10
2022-08-18T07:50:58.038Z,78.90
2022-08-18T07:51:37.284Z,80.00
2022-08-18T07:52:36.049Z,81.00
2022-08-18T07:53:34.163Z,78.70
2022-08-18T07:54:50.598Z,84.70
2022-08-18T07:55:34.143Z,88.40
2022-08-18T07:56:34.135Z,87.00
2022-08-18T07:57:35.288Z,90.10
2022-08-18T07:58:34.111Z,87.10
2022-08-18T07:59:34.081Z,89.60
2022-08-18T08:00:57.610Z,82.10
2022-08-18T08:01:34.126Z,64.20
2022-08-18T08:02:34.056Z,66.20
2022-08-18T08:03:34.058Z,66.20
2022-08-18T08:04:34.033Z,64.20
2022-08-18T08:05:34.019Z,60.00
2022-08-18T08:06:34.043Z,59.30
2022-08-18T08:07:33.986Z,55.50
2022-08-18T08:08:34.001Z,51.70
2022-08-18T08:09:34.007Z,54.50
2022-08-18T08:10:33.988Z,54.10
2022-08-18T08:11:34.076Z,50.00
2022-08-18T08:12:33.951Z,53.00
2022-08-18T08:13:54.285Z,46.90
2022-08-18T08:14:33.981Z,46.90
2022-08-18T08:15:33.920Z,46.10
2022-08-18T08:16:33.913Z,46.30
2022-08-18T08:17:33.924Z,47.00
2022-08-18T08:18:33.922Z,44.80
2022-08-18T08:19:59.049Z,43.70
2022-08-18T08:20:33.906Z,43.90
2022-08-18T08:21:33.858Z,45.70
2022-08-18T08:22:33.865Z,46.30
2022-08-18T08:23:33.835Z,47.30
2022-08-18T08:24:33.852Z,44.30
2022-08-18T08:25:49.264Z,41.80
2022-08-18T08:26:33.823Z,41.70
2022-08-18T08:27:33.796Z,41.10
2022-08-18T08:28:33.833Z,38.90
2022-08-18T08:29:33.796Z,39.90
2022-08-18T08:30:34.290Z,40.00
2022-08-18T08:31:37.330Z,37.40
2022-08-18T08:32:33.783Z,36.10
2022-08-18T08:33:33.769Z,37.60
2022-08-18T08:34:33.740Z,39.00
2022-08-18T08:35:49.425Z,36.80
2022-08-18T08:36:33.744Z,35.30
2022-08-18T08:37:33.705Z,34.80
2022-08-18T08:38:42.669Z,33.30
2022-08-18T08:39:33.765Z,34.60
2022-08-18T08:40:33.753Z,33.50
2022-08-18T08:41:33.676Z,35.80
2022-08-18T08:42:36.306Z,33.80
2022-08-18T08:43:33.653Z,34.10
2022-08-18T08:44:33.633Z,34.20
2022-08-18T08:45:33.636Z,34.80
2022-08-18T08:46:33.628Z,35.00
2022-08-18T08:47:33.595Z,33.30
2022-08-18T08:48:33.587Z,33.60
2022-08-18T08:49:33.605Z,31.60
2022-08-18T08:50:33.559Z,32.00
2022-08-18T08:51:33.588Z,33.00
2022-08-18T08:52:33.536Z,32.20
2022-08-18T08:53:33.589Z,32.20
2022-08-18T08:54:33.530Z,29.80
2022-08-18T08:55:33.517Z,29.30
2022-08-18T08:56:33.529Z,29.80
2022-08-18T08:57:33.502Z,30.40
2022-08-18T08:58:33.482Z,29.60
2022-08-18T08:59:33.508Z,30.60
2022-08-18T09:00:33.456Z,29.90
2022-08-18T09:01:33.525Z,29.40
2022-08-18T09:02:47.396Z,28.30
2022-08-18T09:03:33.431Z,29.40
2022-08-18T09:04:33.420Z,28.20
2022-08-18T09:05:33.424Z,27.80
2022-08-18T09:06:33.396Z,27.90
2022-08-18T09:07:38.258Z,28.60
2022-08-18T09:08:33.361Z,27.10
2022-08-18T09:09:33.380Z,27.60
2022-08-18T09:10:33.385Z,26.40
2022-08-18T09:11:33.334Z,27.30
2022-08-18T09:12:33.325Z,26.30
2022-08-18T09:13:33.331Z,27.20
2022-08-18T09:14:33.294Z,25.20
2022-08-18T09:15:33.285Z,25.40
2022-08-18T09:16:33.273Z,24.40
2022-08-18T09:17:34.107Z,24.10
2022-08-18T09:18:33.273Z,22.90
2022-08-18T09:19:33.252Z,23.60
2022-08-18T09:20:33.218Z,24.20
2022-08-18T09:21:33.235Z,23.40
2022-08-18T09:22:33.233Z,24.00
2022-08-18T09:23:33.242Z,23.10
2022-08-18T09:24:33.190Z,23.10
2022-08-18T09:25:33.187Z,22.40
2022-08-18T09:26:37.275Z,22.30
2022-08-18T09:27:48.652Z,22.20
2022-08-18T09:28:33.154Z,21.60
2022-08-18T09:29:33.168Z,22.30
2022-08-18T09:30:33.143Z,21.20
2022-08-18T09:31:33.119Z,21.10
2022-08-18T09:32:33.115Z,20.00
2022-08-18T09:33:33.107Z,19.30
2022-08-18T09:34:33.094Z,18.70
2022-08-18T09:35:33.109Z,17.50
2022-08-18T09:36:33.068Z,19.10
2022-08-18T09:37:33.074Z,19.10
2022-08-18T09:38:33.043Z,19.80
2022-08-18T09:39:33.078Z,18.50
2022-08-18T09:41:01.141Z,17.10
2022-08-18T09:41:33.042Z,19.10
2022-08-18T09:42:33.017Z,18.50
2022-08-18T09:43:33.021Z,18.40
2022-08-18T09:44:32.981Z,16.50
2022-08-18T09:45:34.035Z,17.70
2022-08-18T09:46:32.975Z,17.20
2022-08-18T09:47:32.984Z,17.10
2022-08-18T09:48:32.955Z,16.40
2022-08-18T09:49:38.035Z,16.00
2022-08-18T09:50:32.925Z,16.40
2022-08-18T09:51:32.915Z,15.50
2022-08-18T09:52:32.910Z,16.00
2022-08-18T09:53:32.908Z,17.40
2022-08-18T09:54:32.916Z,17.30
2022-08-18T09:55:32.869Z,17.00
2022-08-18T09:56:32.870Z,15.70
2022-08-18T09:57:41.355Z,16.10
2022-08-18T09:58:32.845Z,17.40
2022-08-18T09:59:34.296Z,16.80
2022-08-18T10:00:33.484Z,16.90
2022-08-18T10:01:32.890Z,16.50
2022-08-18T10:02:32.796Z,17.50
2022-08-18T10:03:32.829Z,16.90
2022-08-18T10:04:32.799Z,17.50
2022-08-18T10:05:32.763Z,17.20
2022-08-18T10:06:32.768Z,17.40
2022-08-18T10:07:38.886Z,16.90
2022-08-18T10:08:32.758Z,17.40
2022-08-18T10:09:36.675Z,16.90
2022-08-18T10:11:01.504Z,17.10
2022-08-18T10:11:32.709Z,16.90
2022-08-18T10:12:32.695Z,17.30
2022-08-18T10:13:32.689Z,16.70
2022-08-18T10:14:32.845Z,18.00
2022-08-18T10:15:33.846Z,17.40
2022-08-18T10:16:46.147Z,16.30
2022-08-18T10:17:32.682Z,14.40
2022-08-18T10:18:32.639Z,15.50
2022-08-18T10:19:39.579Z,15.80
2022-08-18T10:20:32.619Z,15.70
2022-08-18T10:21:33.602Z,14.90
2022-08-18T10:22:35.200Z,13.70
2022-08-18T10:23:38.238Z,14.20
2022-08-18T13:04:55.671Z,13.40
2022-08-18T13:05:00.970Z,13.90
2022-08-18T13:06:00.956Z,6.70
2022-08-18T13:07:04.730Z,6.20
2022-08-18T13:08:00.878Z,7.00
2022-08-18T13:09:00.895Z,6.90
2022-08-18T13:10:00.886Z,6.60
2022-08-18T13:11:13.246Z,6.90
2022-08-18T13:12:00.842Z,6.40
2022-08-18T13:13:00.844Z,6.30
2022-08-18T13:14:00.830Z,6.30
2022-08-18T13:15:00.828Z,6.70
2022-08-18T13:16:01.446Z,6.70
2022-08-18T13:17:00.785Z,6.10
2022-08-18T13:18:00.799Z,6.20
2022-08-18T13:19:00.769Z,6.00
2022-08-18T13:20:00.962Z,5.80
2022-08-18T13:21:00.742Z,6.00
2022-08-18T13:22:00.764Z,5.80
2022-08-18T13:23:00.727Z,5.80
2022-08-18T13:24:00.742Z,6.40
2022-08-18T13:25:00.736Z,5.90
2022-08-18T13:26:02.003Z,5.70
2022-08-18T13:27:00.718Z,5.90
2022-08-18T13:28:01.790Z,5.40
2022-08-18T13:29:00.685Z,5.80
2022-08-18T13:30:00.659Z,6.30
2022-08-18T13:31:00.669Z,6.70
2022-08-18T13:32:00.627Z,6.30
2022-08-18T13:33:05.871Z,6.20
2022-08-18T13:34:04.090Z,6.80
2022-08-18T13:35:02.649Z,6.30
2022-08-18T13:36:00.588Z,6.20
2022-08-18T13:37:00.609Z,6.30
2022-08-18T13:38:00.589Z,6.70
2022-08-18T13:39:00.580Z,5.70
2022-08-18T13:40:01.865Z,5.70
2022-08-18T13:41:00.556Z,5.30
2022-08-18T13:42:00.924Z,5.10
2022-08-18T13:43:00.538Z,5.00
2022-08-18T13:44:00.520Z,5.30
2022-08-18T13:45:22.785Z,4.70
2022-08-18T13:46:01.003Z,5.30
2022-08-18T13:47:00.475Z,5.30
2022-08-18T13:48:00.479Z,5.60
2022-08-18T13:49:00.481Z,5.60
2022-08-18T13:50:00.456Z,5.20
2022-08-18T13:51:01.245Z,4.80
2022-08-18T13:52:01.117Z,5.90
2022-08-18T13:53:00.508Z,5.40
2022-08-18T13:54:26.346Z,5.50
2022-08-18T13:55:00.522Z,5.50
2022-08-18T13:56:00.411Z,5.60
2022-08-18T13:57:00.374Z,5.60
2022-08-18T13:58:00.615Z,5.00
2022-08-18T13:59:00.365Z,6.00
2022-08-18T14:00:00.360Z,5.50
2022-08-18T14:02:00.449Z,5.60
2022-08-18T14:03:00.340Z,6.00
2022-08-18T14:04:00.325Z,6.40
2022-08-18T14:05:00.293Z,6.20
2022-08-18T14:06:01.521Z,6.30
2022-08-18T14:07:02.147Z,6.20
2022-08-18T14:08:00.279Z,6.30
2022-08-18T14:09:00.255Z,5.50
2022-08-18T14:10:05.008Z,5.70
2022-08-18T14:11:00.243Z,5.60
2022-08-18T14:12:00.240Z,4.90
2022-08-18T14:13:00.207Z,4.90
2022-08-18T14:14:00.280Z,5.10
2022-08-18T14:15:00.226Z,5.20
2022-08-18T14:16:00.201Z,5.10
2022-08-18T14:17:00.187Z,5.40
2022-08-18T14:18:00.167Z,5.80
2022-08-18T14:19:00.182Z,5.10
2022-08-18T14:20:00.194Z,5.20
2022-08-18T14:21:00.207Z,5.40
2022-08-18T14:22:00.139Z,5.20
2022-08-18T14:23:00.170Z,5.50
2022-08-18T14:24:00.144Z,5.40
2022-08-18T14:25:00.266Z,5.40
2022-08-18T14:26:00.306Z,4.80
2022-08-18T14:27:00.087Z,5.00
2022-08-18T14:28:00.086Z,5.10
2022-08-18T14:29:00.079Z,4.80
2022-08-18T14:30:00.204Z,5.40
2022-08-18T14:31:00.075Z,4.60
2022-08-18T14:32:00.079Z,5.00
2022-08-18T14:33:00.271Z,4.50
2022-08-18T14:34:03.867Z,4.90
2022-08-18T14:35:01.099Z,4.40
2022-08-18T14:36:05.952Z,4.70
2022-08-18T14:37:00.062Z,5.10
2022-08-18T14:38:00.005Z,4.40
2022-08-18T14:38:59.974Z,5.10
2022-08-18T14:40:00.131Z,4.90
2022-08-18T14:40:59.999Z,4.60
2022-08-18T14:41:59.936Z,4.40
2022-08-18T14:42:59.932Z,5.10
2022-08-18T14:44:12.555Z,4.70
2022-08-18T14:45:16.985Z,5.10
2022-08-18T14:45:59.928Z,4.50
2022-08-18T14:46:59.901Z,4.00
2022-08-18T14:47:59.896Z,4.50
2022-08-18T14:48:59.849Z,4.30
2022-08-18T14:49:59.904Z,4.20
2022-08-18T14:50:59.833Z,5.20
2022-08-18T14:51:59.820Z,4.90
2022-08-18T14:52:59.795Z,4.80
2022-08-18T14:53:59.782Z,4.30
2022-08-18T14:54:59.777Z,4.60
2022-08-18T14:55:59.771Z,4.00
2022-08-18T14:56:59.783Z,4.00
2022-08-18T14:57:59.856Z,4.30
2022-08-18T14:58:59.728Z,5.00
2022-08-18T14:59:59.755Z,4.70
2022-08-18T15:00:59.922Z,4.70
2022-08-18T15:01:59.712Z,5.00
2022-08-18T15:03:00.189Z,4.40
2022-08-18T15:03:59.686Z,4.70
2022-08-18T15:04:59.658Z,4.50
2022-08-18T15:05:59.660Z,4.20
2022-08-18T15:06:59.651Z,4.20
2022-08-18T15:07:59.628Z,4.10
2022-08-18T15:08:59.624Z,4.50
2022-08-18T15:10:16.338Z,4.00
2022-08-18T15:10:59.610Z,4.40
2022-08-18T15:11:59.605Z,4.10
2022-08-18T15:12:59.574Z,3.90
2022-08-18T15:13:59.601Z,4.20
2022-08-18T15:14:59.559Z,4.00
2022-08-18T15:16:02.162Z,4.20
2022-08-18T15:16:59.558Z,4.40
2022-08-18T15:17:59.549Z,4.90
2022-08-18T15:18:59.528Z,4.60
2022-08-18T15:20:01.391Z,4.70
2022-08-18T15:20:59.509Z,4.20
2022-08-18T15:21:59.489Z,4.00
2022-08-18T15:22:59.509Z,4.30
2022-08-18T15:23:59.484Z,3.70
2022-08-18T15:24:59.490Z,3.90
2022-08-18T15:25:59.514Z,4.10
2022-08-18T15:27:06.170Z,4.20
2022-08-18T15:27:59.445Z,4.00
2022-08-18T15:29:00.228Z,4.10
2022-08-18T15:29:59.412Z,3.90
2022-08-18T15:32:05.526Z,4.00
2022-08-18T15:32:59.395Z,3.90
2022-08-18T15:33:59.376Z,4.10
2022-08-18T15:34:59.373Z,3.50
2022-08-18T15:35:59.363Z,3.50